メインページ
METAR-TAF:

METAR-TAF

空港 :

ラバト=サレ空港

ラバト, モロッコ

緯度: 34-03N, 経度: 006-46W, 海抜: 84m

現時点の気象観測

当レポートは39分前の11:00(UTC)に作成
北/北西の風 4kt、西からの間で変化する
気温 27°C
湿度 58%
気圧 1018 hPa
視程: 5000m
高度1000ftの雲はほとんどない

METAR: GMME 241100Z 33004KT 280V360 5000 FEW010 27/18 Q1018 NOSIG

時間: 12:39 (11:39 UTC)

予報

当レポートは6時間39分前の05:00(UTC)に作成
予報は24日の 06時(UTC)から 25日の 12時(UTC)まで有効
西/南西の風 5kt
視程: 5000m
高度300ftの雲は散在している
24日の 06時(UTC)から 24日の 08時(UTC)まで一時的に
視程: 3000m
高度600ftの千切れ雲あり
確率 40% :
25日の 03時(UTC)から 25日の 08時(UTC)まで一時的に
視程: 3000m
高度1500ftの千切れ雲あり

TAF: GMME 240500Z 2406/2512 24005KT 5000 SCT003 TEMPO 2406/2408 3000 BR BKN006 PROB40 TEMPO 2503/2508 3000 BR BKN015

4,000以上の空港の気象観測と天気予報(METAR報とTAF報)

利用可能な観測所は地図上に黄色い丸と赤い丸で示す。

丸の上にカーソルを重ねると観測所名を参照できる。

次にクリックすると気象観測と天気予報を参照できる。

マップの切り替え:黒色「×」印の緑ボタンをクリックして拡大、「-」印の緑ボタンをクリックして縮小、緑色の三角印をクリックして隣りの地図に切り替え


METAR-TAF: